sensor_id;sensor_type;location;lat;lon;timestamp;temperature;humidity
9215;DHT22;4642;51.364;6.788;2023-04-22T00:01:40;8.30;99.90
9215;DHT22;4642;51.364;6.788;2023-04-22T00:04:05;8.30;99.90
9215;DHT22;4642;51.364;6.788;2023-04-22T00:06:31;8.60;99.90
9215;DHT22;4642;51.364;6.788;2023-04-22T00:08:57;8.20;99.90
9215;DHT22;4642;51.364;6.788;2023-04-22T00:11:22;7.80;99.90
9215;DHT22;4642;51.364;6.788;2023-04-22T00:13:48;8.60;99.90
9215;DHT22;4642;51.364;6.788;2023-04-22T00:16:14;8.10;99.90
9215;DHT22;4642;51.364;6.788;2023-04-22T00:18:39;9.00;99.90
9215;DHT22;4642;51.364;6.788;2023-04-22T00:21:06;8.50;99.90
9215;DHT22;4642;51.364;6.788;2023-04-22T00:23:32;9.20;99.90
9215;DHT22;4642;51.364;6.788;2023-04-22T00:25:58;8.70;99.90
9215;DHT22;4642;51.364;6.788;2023-04-22T00:28:24;9.20;99.90
9215;DHT22;4642;51.364;6.788;2023-04-22T00:30:49;8.40;99.90
9215;DHT22;4642;51.364;6.788;2023-04-22T00:33:15;8.00;99.90
9215;DHT22;4642;51.364;6.788;2023-04-22T00:35:40;8.80;99.90
9215;DHT22;4642;51.364;6.788;2023-04-22T00:38:06;8.10;99.90
9215;DHT22;4642;51.364;6.788;2023-04-22T00:40:32;8.10;99.90
9215;DHT22;4642;51.364;6.788;2023-04-22T00:42:58;8.10;99.90
9215;DHT22;4642;51.364;6.788;2023-04-22T00:45:25;8.10;99.90
9215;DHT22;4642;51.364;6.788;2023-04-22T00:47:51;8.10;99.90
9215;DHT22;4642;51.364;6.788;2023-04-22T00:50:17;8.00;99.90
9215;DHT22;4642;51.364;6.788;2023-04-22T00:52:43;8.10;99.90
9215;DHT22;4642;51.364;6.788;2023-04-22T00:55:08;7.70;99.90
9215;DHT22;4642;51.364;6.788;2023-04-22T00:57:34;8.10;99.90
9215;DHT22;4642;51.364;6.788;2023-04-22T01:00:00;8.10;99.90
9215;DHT22;4642;51.364;6.788;2023-04-22T01:02:27;8.00;99.90
9215;DHT22;4642;51.364;6.788;2023-04-22T01:04:53;8.90;99.90
9215;DHT22;4642;51.364;6.788;2023-04-22T01:07:19;8.10;99.90
9215;DHT22;4642;51.364;6.788;2023-04-22T01:09:45;8.10;99.90
9215;DHT22;4642;51.364;6.788;2023-04-22T01:12:10;7.80;99.90
9215;DHT22;4642;51.364;6.788;2023-04-22T01:14:36;9.00;99.90
9215;DHT22;4642;51.364;6.788;2023-04-22T01:17:02;8.40;99.90
9215;DHT22;4642;51.364;6.788;2023-04-22T01:19:28;8.20;99.90
9215;DHT22;4642;51.364;6.788;2023-04-22T01:21:54;8.10;99.90
9215;DHT22;4642;51.364;6.788;2023-04-22T01:24:21;8.10;99.90
9215;DHT22;4642;51.364;6.788;2023-04-22T01:26:47;8.10;99.90
9215;DHT22;4642;51.364;6.788;2023-04-22T01:29:13;8.50;99.90
9215;DHT22;4642;51.364;6.788;2023-04-22T01:31:39;8.30;99.90
9215;DHT22;4642;51.364;6.788;2023-04-22T01:34:05;8.00;99.90
9215;DHT22;4642;51.364;6.788;2023-04-22T01:36:30;8.70;99.90
9215;DHT22;4642;51.364;6.788;2023-04-22T01:38:58;8.10;99.90
9215;DHT22;4642;51.364;6.788;2023-04-22T01:41:24;8.10;99.90
9215;DHT22;4642;51.364;6.788;2023-04-22T01:43:52;8.10;99.90
9215;DHT22;4642;51.364;6.788;2023-04-22T01:46:18;8.10;99.90
9215;DHT22;4642;51.364;6.788;2023-04-22T01:48:43;8.80;99.90
9215;DHT22;4642;51.364;6.788;2023-04-22T01:51:15;8.20;99.90
9215;DHT22;4642;51.364;6.788;2023-04-22T01:53:41;8.20;99.90
9215;DHT22;4642;51.364;6.788;2023-04-22T01:56:07;8.40;99.90
9215;DHT22;4642;51.364;6.788;2023-04-22T01:58:32;8.50;99.90
9215;DHT22;4642;51.364;6.788;2023-04-22T02:00:58;8.10;99.90
9215;DHT22;4642;51.364;6.788;2023-04-22T02:03:24;8.20;99.90
9215;DHT22;4642;51.364;6.788;2023-04-22T02:05:49;8.10;99.90
9215;DHT22;4642;51.364;6.788;2023-04-22T02:08:15;8.20;99.90
9215;DHT22;4642;51.364;6.788;2023-04-22T02:10:40;8.90;99.90
9215;DHT22;4642;51.364;6.788;2023-04-22T02:13:06;8.10;99.90
9215;DHT22;4642;51.364;6.788;2023-04-22T02:15:31;8.10;99.90
9215;DHT22;4642;51.364;6.788;2023-04-22T02:17:57;8.10;99.90
9215;DHT22;4642;51.364;6.788;2023-04-22T02:20:22;8.10;99.90
9215;DHT22;4642;51.364;6.788;2023-04-22T02:22:48;8.10;99.90
9215;DHT22;4642;51.364;6.788;2023-04-22T02:25:15;8.10;99.90
9215;DHT22;4642;51.364;6.788;2023-04-22T02:27:41;8.00;99.90
9215;DHT22;4642;51.364;6.788;2023-04-22T02:30:07;8.10;99.90
9215;DHT22;4642;51.364;6.788;2023-04-22T02:32:33;8.00;99.90
9215;DHT22;4642;51.364;6.788;2023-04-22T02:35:01;8.10;99.90
9215;DHT22;4642;51.364;6.788;2023-04-22T02:37:27;8.10;99.90
9215;DHT22;4642;51.364;6.788;2023-04-22T02:39:52;8.00;99.90
9215;DHT22;4642;51.364;6.788;2023-04-22T02:42:18;8.10;99.90
9215;DHT22;4642;51.364;6.788;2023-04-22T02:44:44;8.10;99.90
9215;DHT22;4642;51.364;6.788;2023-04-22T02:47:09;8.70;99.90
9215;DHT22;4642;51.364;6.788;2023-04-22T02:49:35;8.10;99.90
9215;DHT22;4642;51.364;6.788;2023-04-22T02:52:00;8.30;99.90
9215;DHT22;4642;51.364;6.788;2023-04-22T02:54:26;8.10;99.90
9215;DHT22;4642;51.364;6.788;2023-04-22T02:56:51;8.00;99.90
9215;DHT22;4642;51.364;6.788;2023-04-22T02:59:17;8.10;99.90
9215;DHT22;4642;51.364;6.788;2023-04-22T03:01:42;8.00;99.90
9215;DHT22;4642;51.364;6.788;2023-04-22T03:04:08;8.00;99.90
9215;DHT22;4642;51.364;6.788;2023-04-22T03:06:33;8.00;99.90
9215;DHT22;4642;51.364;6.788;2023-04-22T03:08:59;8.10;99.90
9215;DHT22;4642;51.364;6.788;2023-04-22T03:11:25;8.00;99.90
9215;DHT22;4642;51.364;6.788;2023-04-22T03:13:51;8.10;99.90
9215;DHT22;4642;51.364;6.788;2023-04-22T03:16:16;8.50;99.90
9215;DHT22;4642;51.364;6.788;2023-04-22T03:18:42;9.10;99.90
9215;DHT22;4642;51.364;6.788;2023-04-22T03:21:07;8.70;99.90
9215;DHT22;4642;51.364;6.788;2023-04-22T03:23:33;8.90;99.90
9215;DHT22;4642;51.364;6.788;2023-04-22T03:25:59;8.00;99.90
9215;DHT22;4642;51.364;6.788;2023-04-22T03:28:25;8.80;99.90
9215;DHT22;4642;51.364;6.788;2023-04-22T03:30:51;7.80;99.90
9215;DHT22;4642;51.364;6.788;2023-04-22T03:33:17;8.10;99.90
9215;DHT22;4642;51.364;6.788;2023-04-22T03:35:42;8.10;99.90
9215;DHT22;4642;51.364;6.788;2023-04-22T03:38:08;9.10;99.90
9215;DHT22;4642;51.364;6.788;2023-04-22T03:40:34;8.50;99.90
9215;DHT22;4642;51.364;6.788;2023-04-22T03:42:59;8.00;99.90
9215;DHT22;4642;51.364;6.788;2023-04-22T03:45:26;8.70;99.90
9215;DHT22;4642;51.364;6.788;2023-04-22T03:47:51;8.60;99.90
9215;DHT22;4642;51.364;6.788;2023-04-22T03:50:17;8.00;99.90
9215;DHT22;4642;51.364;6.788;2023-04-22T03:52:42;8.00;99.90
9215;DHT22;4642;51.364;6.788;2023-04-22T03:55:08;8.00;99.90
9215;DHT22;4642;51.364;6.788;2023-04-22T03:57:35;8.00;99.90
9215;DHT22;4642;51.364;6.788;2023-04-22T04:00:00;8.00;99.90
9215;DHT22;4642;51.364;6.788;2023-04-22T04:02:26;8.00;99.90
9215;DHT22;4642;51.364;6.788;2023-04-22T04:04:51;8.80;99.90
9215;DHT22;4642;51.364;6.788;2023-04-22T04:07:17;8.10;99.90
9215;DHT22;4642;51.364;6.788;2023-04-22T04:09:43;8.00;99.90
9215;DHT22;4642;51.364;6.788;2023-04-22T04:12:08;8.20;99.90
9215;DHT22;4642;51.364;6.788;2023-04-22T04:14:34;8.50;99.90
9215;DHT22;4642;51.364;6.788;2023-04-22T04:16:59;8.20;99.90
9215;DHT22;4642;51.364;6.788;2023-04-22T04:19:25;9.10;99.90
9215;DHT22;4642;51.364;6.788;2023-04-22T04:21:50;9.00;99.90
9215;DHT22;4642;51.364;6.788;2023-04-22T04:24:16;8.00;99.90
9215;DHT22;4642;51.364;6.788;2023-04-22T04:26:41;8.40;99.90
9215;DHT22;4642;51.364;6.788;2023-04-22T04:29:07;8.10;99.90
9215;DHT22;4642;51.364;6.788;2023-04-22T04:31:32;8.90;99.90
9215;DHT22;4642;51.364;6.788;2023-04-22T04:33:59;9.10;99.90
9215;DHT22;4642;51.364;6.788;2023-04-22T04:36:25;8.80;99.90
9215;DHT22;4642;51.364;6.788;2023-04-22T04:38:51;8.10;99.90
9215;DHT22;4642;51.364;6.788;2023-04-22T04:41:17;8.10;99.90
9215;DHT22;4642;51.364;6.788;2023-04-22T04:43:46;8.90;99.90
9215;DHT22;4642;51.364;6.788;2023-04-22T04:46:12;8.50;99.90
9215;DHT22;4642;51.364;6.788;2023-04-22T04:48:39;8.10;99.90
9215;DHT22;4642;51.364;6.788;2023-04-22T04:51:07;8.70;99.90
9215;DHT22;4642;51.364;6.788;2023-04-22T04:53:32;8.10;99.90
9215;DHT22;4642;51.364;6.788;2023-04-22T04:55:58;8.10;99.90
9215;DHT22;4642;51.364;6.788;2023-04-22T04:58:23;8.10;99.90
9215;DHT22;4642;51.364;6.788;2023-04-22T05:00:49;8.10;99.90
9215;DHT22;4642;51.364;6.788;2023-04-22T05:03:15;8.40;99.90
9215;DHT22;4642;51.364;6.788;2023-04-22T05:05:41;8.20;99.90
9215;DHT22;4642;51.364;6.788;2023-04-22T05:08:06;8.20;99.90
9215;DHT22;4642;51.364;6.788;2023-04-22T05:10:32;8.30;99.90
9215;DHT22;4642;51.364;6.788;2023-04-22T05:12:57;8.20;99.90
9215;DHT22;4642;51.364;6.788;2023-04-22T05:15:23;8.30;99.90
9215;DHT22;4642;51.364;6.788;2023-04-22T05:17:49;8.30;99.90
9215;DHT22;4642;51.364;6.788;2023-04-22T05:20:14;8.30;99.90
9215;DHT22;4642;51.364;6.788;2023-04-22T05:22:40;8.70;99.90
9215;DHT22;4642;51.364;6.788;2023-04-22T05:25:10;8.40;99.90
9215;DHT22;4642;51.364;6.788;2023-04-22T05:27:35;8.60;99.90
9215;DHT22;4642;51.364;6.788;2023-04-22T05:30:01;8.50;99.90
9215;DHT22;4642;51.364;6.788;2023-04-22T05:32:26;8.50;99.90
9215;DHT22;4642;51.364;6.788;2023-04-22T05:34:52;8.60;99.90
9215;DHT22;4642;51.364;6.788;2023-04-22T05:37:18;8.60;99.90
9215;DHT22;4642;51.364;6.788;2023-04-22T05:39:45;7.90;99.90
9215;DHT22;4642;51.364;6.788;2023-04-22T05:42:10;8.70;99.90
9215;DHT22;4642;51.364;6.788;2023-04-22T05:44:36;8.70;99.90
9215;DHT22;4642;51.364;6.788;2023-04-22T05:47:02;8.70;99.90
9215;DHT22;4642;51.364;6.788;2023-04-22T05:49:27;9.00;99.90
9215;DHT22;4642;51.364;6.788;2023-04-22T05:51:53;10.30;99.90
9215;DHT22;4642;51.364;6.788;2023-04-22T05:54:18;8.90;99.90
9215;DHT22;4642;51.364;6.788;2023-04-22T05:56:44;9.00;99.90
9215;DHT22;4642;51.364;6.788;2023-04-22T05:59:09;9.10;99.90
9215;DHT22;4642;51.364;6.788;2023-04-22T06:01:35;9.10;99.90
9215;DHT22;4642;51.364;6.788;2023-04-22T06:04:02;9.20;99.90
9215;DHT22;4642;51.364;6.788;2023-04-22T06:06:30;9.20;99.90
9215;DHT22;4642;51.364;6.788;2023-04-22T06:08:55;9.40;99.90
9215;DHT22;4642;51.364;6.788;2023-04-22T06:11:21;9.40;99.90
9215;DHT22;4642;51.364;6.788;2023-04-22T06:13:46;9.90;99.90
9215;DHT22;4642;51.364;6.788;2023-04-22T06:16:12;9.60;99.90
9215;DHT22;4642;51.364;6.788;2023-04-22T06:18:38;9.70;99.90
9215;DHT22;4642;51.364;6.788;2023-04-22T06:21:03;9.80;99.90
9215;DHT22;4642;51.364;6.788;2023-04-22T06:23:29;9.10;99.90
9215;DHT22;4642;51.364;6.788;2023-04-22T06:25:54;9.90;99.90
9215;DHT22;4642;51.364;6.788;2023-04-22T06:28:20;9.90;99.90
9215;DHT22;4642;51.364;6.788;2023-04-22T06:30:45;10.00;99.90
9215;DHT22;4642;51.364;6.788;2023-04-22T06:33:11;10.10;99.90
9215;DHT22;4642;51.364;6.788;2023-04-22T06:35:37;10.20;99.90
9215;DHT22;4642;51.364;6.788;2023-04-22T06:38:02;10.30;99.90
9215;DHT22;4642;51.364;6.788;2023-04-22T06:40:28;10.40;99.90
9215;DHT22;4642;51.364;6.788;2023-04-22T06:42:53;10.50;99.90
9215;DHT22;4642;51.364;6.788;2023-04-22T06:45:19;10.60;99.90
9215;DHT22;4642;51.364;6.788;2023-04-22T06:47:45;10.70;99.90
9215;DHT22;4642;51.364;6.788;2023-04-22T06:50:10;10.80;99.90
9215;DHT22;4642;51.364;6.788;2023-04-22T06:52:36;10.90;99.90
9215;DHT22;4642;51.364;6.788;2023-04-22T06:55:02;11.00;99.90
9215;DHT22;4642;51.364;6.788;2023-04-22T06:57:28;11.10;99.90
9215;DHT22;4642;51.364;6.788;2023-04-22T06:59:54;11.20;99.90
9215;DHT22;4642;51.364;6.788;2023-04-22T07:02:20;11.40;99.90
9215;DHT22;4642;51.364;6.788;2023-04-22T07:04:46;11.50;99.90
9215;DHT22;4642;51.364;6.788;2023-04-22T07:07:11;11.60;99.90
9215;DHT22;4642;51.364;6.788;2023-04-22T07:09:38;11.60;99.90
9215;DHT22;4642;51.364;6.788;2023-04-22T07:12:03;11.80;99.90
9215;DHT22;4642;51.364;6.788;2023-04-22T07:14:29;11.90;99.90
9215;DHT22;4642;51.364;6.788;2023-04-22T07:16:55;12.50;99.90
9215;DHT22;4642;51.364;6.788;2023-04-22T07:19:21;12.10;99.90
9215;DHT22;4642;51.364;6.788;2023-04-22T07:21:47;12.30;99.90
9215;DHT22;4642;51.364;6.788;2023-04-22T07:24:12;12.40;99.90
9215;DHT22;4642;51.364;6.788;2023-04-22T07:26:39;12.50;99.90
9215;DHT22;4642;51.364;6.788;2023-04-22T07:29:05;12.60;99.90
9215;DHT22;4642;51.364;6.788;2023-04-22T07:31:32;12.70;99.90
9215;DHT22;4642;51.364;6.788;2023-04-22T07:33:57;12.90;99.90
9215;DHT22;4642;51.364;6.788;2023-04-22T07:36:23;12.90;99.90
9215;DHT22;4642;51.364;6.788;2023-04-22T07:38:49;13.00;99.90
9215;DHT22;4642;51.364;6.788;2023-04-22T07:41:14;13.10;99.90
9215;DHT22;4642;51.364;6.788;2023-04-22T07:43:40;13.20;99.90
9215;DHT22;4642;51.364;6.788;2023-04-22T07:46:05;13.30;99.90
9215;DHT22;4642;51.364;6.788;2023-04-22T07:48:31;13.40;99.90
9215;DHT22;4642;51.364;6.788;2023-04-22T07:50:57;13.50;99.90
9215;DHT22;4642;51.364;6.788;2023-04-22T07:53:22;13.70;99.90
9215;DHT22;4642;51.364;6.788;2023-04-22T07:55:48;13.80;99.90
9215;DHT22;4642;51.364;6.788;2023-04-22T07:58:14;13.80;99.90
9215;DHT22;4642;51.364;6.788;2023-04-22T08:00:40;13.90;99.90
9215;DHT22;4642;51.364;6.788;2023-04-22T08:03:05;14.10;99.90
9215;DHT22;4642;51.364;6.788;2023-04-22T08:05:31;14.10;99.90
9215;DHT22;4642;51.364;6.788;2023-04-22T08:07:56;14.20;1.00
9215;DHT22;4642;51.364;6.788;2023-04-22T08:10:22;14.30;1.00
9215;DHT22;4642;51.364;6.788;2023-04-22T08:12:48;14.30;1.00
9215;DHT22;4642;51.364;6.788;2023-04-22T08:15:13;14.60;1.00
9215;DHT22;4642;51.364;6.788;2023-04-22T08:17:39;14.60;1.00
9215;DHT22;4642;51.364;6.788;2023-04-22T08:20:05;14.70;1.00
9215;DHT22;4642;51.364;6.788;2023-04-22T08:22:31;14.70;1.00
9215;DHT22;4642;51.364;6.788;2023-04-22T08:24:58;14.80;1.00
9215;DHT22;4642;51.364;6.788;2023-04-22T08:27:23;14.90;1.00
9215;DHT22;4642;51.364;6.788;2023-04-22T08:29:49;14.90;1.00
9215;DHT22;4642;51.364;6.788;2023-04-22T08:32:15;15.00;6.60
9215;DHT22;4642;51.364;6.788;2023-04-22T08:34:41;15.20;99.90
9215;DHT22;4642;51.364;6.788;2023-04-22T08:37:07;15.30;99.90
9215;DHT22;4642;51.364;6.788;2023-04-22T08:39:32;15.40;99.90
9215;DHT22;4642;51.364;6.788;2023-04-22T08:41:58;15.50;99.90
9215;DHT22;4642;51.364;6.788;2023-04-22T08:44:24;15.50;99.90
9215;DHT22;4642;51.364;6.788;2023-04-22T08:46:50;15.70;99.90
9215;DHT22;4642;51.364;6.788;2023-04-22T08:49:19;15.70;99.90
9215;DHT22;4642;51.364;6.788;2023-04-22T08:51:46;15.90;99.90
9215;DHT22;4642;51.364;6.788;2023-04-22T08:54:12;15.80;99.90
9215;DHT22;4642;51.364;6.788;2023-04-22T08:56:43;15.90;99.90
9215;DHT22;4642;51.364;6.788;2023-04-22T08:59:12;15.90;99.90
9215;DHT22;4642;51.364;6.788;2023-04-22T09:01:39;16.00;99.90
9215;DHT22;4642;51.364;6.788;2023-04-22T09:04:05;16.10;99.90
9215;DHT22;4642;51.364;6.788;2023-04-22T09:06:32;16.10;99.90
9215;DHT22;4642;51.364;6.788;2023-04-22T09:08:59;16.20;99.90
9215;DHT22;4642;51.364;6.788;2023-04-22T09:11:26;16.30;99.90
9215;DHT22;4642;51.364;6.788;2023-04-22T09:13:53;16.40;99.90
9215;DHT22;4642;51.364;6.788;2023-04-22T09:16:19;16.50;99.90
9215;DHT22;4642;51.364;6.788;2023-04-22T09:18:44;16.50;99.90
9215;DHT22;4642;51.364;6.788;2023-04-22T09:21:12;16.60;99.90
9215;DHT22;4642;51.364;6.788;2023-04-22T09:23:51;16.70;99.90
9215;DHT22;4642;51.364;6.788;2023-04-22T09:26:24;16.80;99.90
9215;DHT22;4642;51.364;6.788;2023-04-22T09:28:54;16.80;99.90
9215;DHT22;4642;51.364;6.788;2023-04-22T09:31:22;16.90;99.90
9215;DHT22;4642;51.364;6.788;2023-04-22T09:36:15;17.20;99.90
9215;DHT22;4642;51.364;6.788;2023-04-22T09:38:50;17.30;99.90
9215;DHT22;4642;51.364;6.788;2023-04-22T09:41:16;17.40;99.90
9215;DHT22;4642;51.364;6.788;2023-04-22T09:43:42;17.50;99.90
9215;DHT22;4642;51.364;6.788;2023-04-22T09:46:09;17.50;99.90
9215;DHT22;4642;51.364;6.788;2023-04-22T09:48:41;17.70;99.90
9215;DHT22;4642;51.364;6.788;2023-04-22T09:51:14;17.60;99.90
9215;DHT22;4642;51.364;6.788;2023-04-22T09:53:40;17.70;99.90
9215;DHT22;4642;51.364;6.788;2023-04-22T09:56:05;17.70;99.90
9215;DHT22;4642;51.364;6.788;2023-04-22T09:58:38;17.70;99.90
9215;DHT22;4642;51.364;6.788;2023-04-22T10:01:04;17.80;99.90
9215;DHT22;4642;51.364;6.788;2023-04-22T10:03:30;17.80;99.90
9215;DHT22;4642;51.364;6.788;2023-04-22T10:05:56;17.80;99.90
9215;DHT22;4642;51.364;6.788;2023-04-22T10:08:22;17.90;99.90
9215;DHT22;4642;51.364;6.788;2023-04-22T10:10:48;17.90;99.90
9215;DHT22;4642;51.364;6.788;2023-04-22T10:13:13;17.90;99.90
9215;DHT22;4642;51.364;6.788;2023-04-22T10:15:47;18.00;99.90
9215;DHT22;4642;51.364;6.788;2023-04-22T10:18:17;18.00;99.90
9215;DHT22;4642;51.364;6.788;2023-04-22T10:20:44;18.10;99.90
9215;DHT22;4642;51.364;6.788;2023-04-22T10:23:18;18.30;99.90
9215;DHT22;4642;51.364;6.788;2023-04-22T10:25:47;18.40;99.90
9215;DHT22;4642;51.364;6.788;2023-04-22T10:28:15;18.50;99.90
9215;DHT22;4642;51.364;6.788;2023-04-22T10:30:41;18.60;99.90
9215;DHT22;4642;51.364;6.788;2023-04-22T10:41:30;18.90;99.90
9215;DHT22;4642;51.364;6.788;2023-04-22T10:43:58;18.90;99.90
9215;DHT22;4642;51.364;6.788;2023-04-22T10:49:24;19.10;99.90
9215;DHT22;4642;51.364;6.788;2023-04-22T10:51:57;19.20;99.90
9215;DHT22;4642;51.364;6.788;2023-04-22T10:57:05;19.20;99.90
9215;DHT22;4642;51.364;6.788;2023-04-22T10:59:33;19.40;99.90
9215;DHT22;4642;51.364;6.788;2023-04-22T11:02:04;19.50;99.90
9215;DHT22;4642;51.364;6.788;2023-04-22T11:04:30;19.60;99.90
9215;DHT22;4642;51.364;6.788;2023-04-22T11:15:20;19.60;54.60
9215;DHT22;4642;51.364;6.788;2023-04-22T11:17:53;19.70;57.50
9215;DHT22;4642;51.364;6.788;2023-04-22T11:20:19;19.70;82.40
9215;DHT22;4642;51.364;6.788;2023-04-22T11:22:52;19.80;99.30
9215;DHT22;4642;51.364;6.788;2023-04-22T11:25:18;20.00;93.80
9215;DHT22;4642;51.364;6.788;2023-04-22T11:27:44;20.10;48.30
9215;DHT22;4642;51.364;6.788;2023-04-22T11:30:18;20.10;43.60
9215;DHT22;4642;51.364;6.788;2023-04-22T11:32:52;20.10;14.70
9215;DHT22;4642;51.364;6.788;2023-04-22T11:35:23;20.00;51.60
9215;DHT22;4642;51.364;6.788;2023-04-22T11:37:54;19.90;57.10
9215;DHT22;4642;51.364;6.788;2023-04-22T11:40:23;19.90;63.40
9215;DHT22;4642;51.364;6.788;2023-04-22T11:42:50;19.90;85.90
9215;DHT22;4642;51.364;6.788;2023-04-22T11:45:16;19.80;96.70
9215;DHT22;4642;51.364;6.788;2023-04-22T11:47:42;19.80;99.90
9215;DHT22;4642;51.364;6.788;2023-04-22T11:50:11;19.80;99.90
9215;DHT22;4642;51.364;6.788;2023-04-22T11:52:53;19.80;99.90
9215;DHT22;4642;51.364;6.788;2023-04-22T11:55:27;19.80;99.80
9215;DHT22;4642;51.364;6.788;2023-04-22T12:00:31;19.80;79.70
9215;DHT22;4642;51.364;6.788;2023-04-22T12:03:11;19.90;77.20
9215;DHT22;4642;51.364;6.788;2023-04-22T12:05:41;19.90;69.70
9215;DHT22;4642;51.364;6.788;2023-04-22T12:08:11;19.90;28.70
9215;DHT22;4642;51.364;6.788;2023-04-22T12:10:52;19.90;37.20
9215;DHT22;4642;51.364;6.788;2023-04-22T12:13:23;19.90;55.80
9215;DHT22;4642;51.364;6.788;2023-04-22T12:15:58;19.90;38.90
9215;DHT22;4642;51.364;6.788;2023-04-22T12:18:32;19.90;67.60
9215;DHT22;4642;51.364;6.788;2023-04-22T12:21:08;20.10;95.00
9215;DHT22;4642;51.364;6.788;2023-04-22T12:23:45;20.30;85.80
9215;DHT22;4642;51.364;6.788;2023-04-22T12:26:11;20.40;46.60
9215;DHT22;4642;51.364;6.788;2023-04-22T12:28:38;20.40;21.50
9215;DHT22;4642;51.364;6.788;2023-04-22T12:31:04;20.50;36.90
9215;DHT22;4642;51.364;6.788;2023-04-22T12:33:30;20.70;44.00
9215;DHT22;4642;51.364;6.788;2023-04-22T12:35:55;20.60;9.30
9215;DHT22;4642;51.364;6.788;2023-04-22T12:38:21;20.60;9.60
9215;DHT22;4642;51.364;6.788;2023-04-22T12:40:47;20.70;8.20
9215;DHT22;4642;51.364;6.788;2023-04-22T12:43:12;20.70;7.60
9215;DHT22;4642;51.364;6.788;2023-04-22T12:45:38;20.70;7.10
9215;DHT22;4642;51.364;6.788;2023-04-22T12:48:03;20.70;7.60
9215;DHT22;4642;51.364;6.788;2023-04-22T12:50:29;20.80;24.50
9215;DHT22;4642;51.364;6.788;2023-04-22T12:52:55;20.80;99.90
9215;DHT22;4642;51.364;6.788;2023-04-22T12:55:20;20.90;37.00
9215;DHT22;4642;51.364;6.788;2023-04-22T12:57:47;21.10;39.00
9215;DHT22;4642;51.364;6.788;2023-04-22T13:00:13;21.20;70.70
9215;DHT22;4642;51.364;6.788;2023-04-22T13:02:45;21.30;31.60
9215;DHT22;4642;51.364;6.788;2023-04-22T13:05:11;21.20;11.90
9215;DHT22;4642;51.364;6.788;2023-04-22T13:07:38;21.10;10.20
9215;DHT22;4642;51.364;6.788;2023-04-22T13:10:05;21.10;15.90
9215;DHT22;4642;51.364;6.788;2023-04-22T13:12:31;21.10;70.80
9215;DHT22;4642;51.364;6.788;2023-04-22T13:14:57;21.00;19.80
9215;DHT22;4642;51.364;6.788;2023-04-22T13:17:22;20.90;13.30
9215;DHT22;4642;51.364;6.788;2023-04-22T13:19:48;20.90;99.20
9215;DHT22;4642;51.364;6.788;2023-04-22T13:22:15;20.90;21.30
9215;DHT22;4642;51.364;6.788;2023-04-22T13:24:41;20.70;24.90
9215;DHT22;4642;51.364;6.788;2023-04-22T13:27:06;20.60;23.60
9215;DHT22;4642;51.364;6.788;2023-04-22T13:29:33;20.50;29.20
9215;DHT22;4642;51.364;6.788;2023-04-22T13:31:59;20.40;3.70
9215;DHT22;4642;51.364;6.788;2023-04-22T13:34:24;20.30;42.30
9215;DHT22;4642;51.364;6.788;2023-04-22T13:36:50;20.20;52.90
9215;DHT22;4642;51.364;6.788;2023-04-22T13:39:16;20.10;99.90
9215;DHT22;4642;51.364;6.788;2023-04-22T13:41:43;19.90;99.90
9215;DHT22;4642;51.364;6.788;2023-04-22T13:44:10;19.70;99.90
9215;DHT22;4642;51.364;6.788;2023-04-22T13:46:37;19.70;99.90
9215;DHT22;4642;51.364;6.788;2023-04-22T13:49:03;19.50;99.90
9215;DHT22;4642;51.364;6.788;2023-04-22T13:51:29;19.40;99.90
9215;DHT22;4642;51.364;6.788;2023-04-22T13:53:55;19.40;99.90
9215;DHT22;4642;51.364;6.788;2023-04-22T13:56:21;19.40;99.90
9215;DHT22;4642;51.364;6.788;2023-04-22T13:58:47;19.30;99.90
9215;DHT22;4642;51.364;6.788;2023-04-22T14:01:13;19.20;99.90
9215;DHT22;4642;51.364;6.788;2023-04-22T14:03:39;19.10;99.90
9215;DHT22;4642;51.364;6.788;2023-04-22T14:06:04;19.20;99.90
9215;DHT22;4642;51.364;6.788;2023-04-22T14:08:30;19.00;99.90
9215;DHT22;4642;51.364;6.788;2023-04-22T14:10:56;18.90;99.90
9215;DHT22;4642;51.364;6.788;2023-04-22T14:13:24;19.00;99.90
9215;DHT22;4642;51.364;6.788;2023-04-22T14:15:50;18.90;99.90
9215;DHT22;4642;51.364;6.788;2023-04-22T14:18:16;18.80;99.90
9215;DHT22;4642;51.364;6.788;2023-04-22T14:20:41;18.80;99.90
9215;DHT22;4642;51.364;6.788;2023-04-22T14:23:09;18.70;99.90
9215;DHT22;4642;51.364;6.788;2023-04-22T14:25:35;18.60;99.90
9215;DHT22;4642;51.364;6.788;2023-04-22T14:28:01;18.50;99.90
9215;DHT22;4642;51.364;6.788;2023-04-22T14:30:27;18.50;99.90
9215;DHT22;4642;51.364;6.788;2023-04-22T14:32:53;18.30;99.90
9215;DHT22;4642;51.364;6.788;2023-04-22T14:35:19;18.30;99.90
9215;DHT22;4642;51.364;6.788;2023-04-22T14:37:44;18.20;99.90
9215;DHT22;4642;51.364;6.788;2023-04-22T14:40:10;18.10;99.90
9215;DHT22;4642;51.364;6.788;2023-04-22T14:42:39;18.00;99.90
9215;DHT22;4642;51.364;6.788;2023-04-22T14:45:05;17.90;99.90
9215;DHT22;4642;51.364;6.788;2023-04-22T14:47:31;17.80;99.90
9215;DHT22;4642;51.364;6.788;2023-04-22T14:49:56;17.70;99.90
9215;DHT22;4642;51.364;6.788;2023-04-22T14:52:22;17.70;99.90
9215;DHT22;4642;51.364;6.788;2023-04-22T14:54:47;17.60;99.90
9215;DHT22;4642;51.364;6.788;2023-04-22T14:57:13;17.50;99.90
9215;DHT22;4642;51.364;6.788;2023-04-22T14:59:39;17.60;99.90
9215;DHT22;4642;51.364;6.788;2023-04-22T15:02:05;17.50;99.90
9215;DHT22;4642;51.364;6.788;2023-04-22T15:04:31;17.50;99.90
9215;DHT22;4642;51.364;6.788;2023-04-22T15:06:57;17.50;99.90
9215;DHT22;4642;51.364;6.788;2023-04-22T15:09:24;17.50;99.90
9215;DHT22;4642;51.364;6.788;2023-04-22T15:11:50;17.50;99.90
9215;DHT22;4642;51.364;6.788;2023-04-22T15:14:15;17.30;99.90
9215;DHT22;4642;51.364;6.788;2023-04-22T15:16:41;17.30;99.90
9215;DHT22;4642;51.364;6.788;2023-04-22T15:19:07;17.30;99.90
9215;DHT22;4642;51.364;6.788;2023-04-22T15:21:33;17.40;99.90
9215;DHT22;4642;51.364;6.788;2023-04-22T15:23:58;17.30;99.90
9215;DHT22;4642;51.364;6.788;2023-04-22T15:26:24;17.20;99.90
9215;DHT22;4642;51.364;6.788;2023-04-22T15:28:49;17.30;99.90
9215;DHT22;4642;51.364;6.788;2023-04-22T15:31:19;17.10;99.90
9215;DHT22;4642;51.364;6.788;2023-04-22T15:33:44;17.10;99.90
9215;DHT22;4642;51.364;6.788;2023-04-22T15:36:10;17.10;99.90
9215;DHT22;4642;51.364;6.788;2023-04-22T15:38:36;17.00;99.90
9215;DHT22;4642;51.364;6.788;2023-04-22T15:41:03;17.00;99.90
9215;DHT22;4642;51.364;6.788;2023-04-22T15:43:28;17.00;99.90
9215;DHT22;4642;51.364;6.788;2023-04-22T15:45:56;17.00;99.90
9215;DHT22;4642;51.364;6.788;2023-04-22T15:48:22;17.00;99.90
9215;DHT22;4642;51.364;6.788;2023-04-22T15:50:48;17.00;99.90
9215;DHT22;4642;51.364;6.788;2023-04-22T15:53:13;17.00;99.90
9215;DHT22;4642;51.364;6.788;2023-04-22T15:55:39;16.90;99.90
9215;DHT22;4642;51.364;6.788;2023-04-22T15:58:04;16.90;99.90
9215;DHT22;4642;51.364;6.788;2023-04-22T16:00:30;16.90;99.90
9215;DHT22;4642;51.364;6.788;2023-04-22T16:02:55;16.90;99.90
9215;DHT22;4642;51.364;6.788;2023-04-22T16:05:21;16.90;99.90
9215;DHT22;4642;51.364;6.788;2023-04-22T16:07:51;16.90;99.90
9215;DHT22;4642;51.364;6.788;2023-04-22T16:10:17;16.80;99.90
9215;DHT22;4642;51.364;6.788;2023-04-22T16:12:43;16.80;99.90
9215;DHT22;4642;51.364;6.788;2023-04-22T16:15:09;16.80;99.90
9215;DHT22;4642;51.364;6.788;2023-04-22T16:17:36;16.80;99.90
9215;DHT22;4642;51.364;6.788;2023-04-22T16:20:02;16.80;99.90
9215;DHT22;4642;51.364;6.788;2023-04-22T16:22:30;16.70;99.90
9215;DHT22;4642;51.364;6.788;2023-04-22T16:24:56;16.70;99.90
9215;DHT22;4642;51.364;6.788;2023-04-22T16:27:21;16.70;99.90
9215;DHT22;4642;51.364;6.788;2023-04-22T16:29:47;16.60;99.90
9215;DHT22;4642;51.364;6.788;2023-04-22T16:32:12;16.50;99.90